sensor_id;sensor_type;location;lat;lon;timestamp;temperature;humidity
23301;DHT22;11819;51.394;12.340;2022-08-07T00:00:28;18.30;52.20
23301;DHT22;11819;51.394;12.340;2022-08-07T00:02:54;18.30;52.30
23301;DHT22;11819;51.394;12.340;2022-08-07T00:05:21;18.30;52.20
23301;DHT22;11819;51.394;12.340;2022-08-07T00:07:47;18.30;52.30
23301;DHT22;11819;51.394;12.340;2022-08-07T00:10:13;18.20;52.30
23301;DHT22;11819;51.394;12.340;2022-08-07T00:12:39;18.20;52.40
23301;DHT22;11819;51.394;12.340;2022-08-07T00:15:05;18.10;52.50
23301;DHT22;11819;51.394;12.340;2022-08-07T00:17:31;18.10;52.60
23301;DHT22;11819;51.394;12.340;2022-08-07T00:19:57;18.00;52.80
23301;DHT22;11819;51.394;12.340;2022-08-07T00:22:22;18.00;53.10
23301;DHT22;11819;51.394;12.340;2022-08-07T00:24:48;17.90;53.20
23301;DHT22;11819;51.394;12.340;2022-08-07T00:27:13;17.80;53.30
23301;DHT22;11819;51.394;12.340;2022-08-07T00:29:39;17.80;53.40
23301;DHT22;11819;51.394;12.340;2022-08-07T00:32:05;17.80;53.50
23301;DHT22;11819;51.394;12.340;2022-08-07T00:34:31;17.80;53.60
23301;DHT22;11819;51.394;12.340;2022-08-07T00:36:56;17.70;53.70
23301;DHT22;11819;51.394;12.340;2022-08-07T00:39:22;17.70;53.80
23301;DHT22;11819;51.394;12.340;2022-08-07T00:41:53;17.60;54.00
23301;DHT22;11819;51.394;12.340;2022-08-07T00:44:20;17.60;54.20
23301;DHT22;11819;51.394;12.340;2022-08-07T00:46:45;17.50;54.20
23301;DHT22;11819;51.394;12.340;2022-08-07T00:49:12;17.50;54.30
23301;DHT22;11819;51.394;12.340;2022-08-07T00:51:38;17.50;54.30
23301;DHT22;11819;51.394;12.340;2022-08-07T00:54:03;17.50;54.40
23301;DHT22;11819;51.394;12.340;2022-08-07T00:56:29;17.50;54.40
23301;DHT22;11819;51.394;12.340;2022-08-07T00:58:55;17.50;54.40
23301;DHT22;11819;51.394;12.340;2022-08-07T01:01:21;17.50;54.40
23301;DHT22;11819;51.394;12.340;2022-08-07T01:03:48;17.50;54.40
23301;DHT22;11819;51.394;12.340;2022-08-07T01:06:16;17.50;54.50
23301;DHT22;11819;51.394;12.340;2022-08-07T01:08:42;17.50;54.60
23301;DHT22;11819;51.394;12.340;2022-08-07T01:11:08;17.50;54.70
23301;DHT22;11819;51.394;12.340;2022-08-07T01:13:35;17.40;54.70
23301;DHT22;11819;51.394;12.340;2022-08-07T01:16:03;17.40;54.90
23301;DHT22;11819;51.394;12.340;2022-08-07T01:18:29;17.40;55.00
23301;DHT22;11819;51.394;12.340;2022-08-07T01:21:07;17.30;55.10
23301;DHT22;11819;51.394;12.340;2022-08-07T01:23:34;17.30;55.30
23301;DHT22;11819;51.394;12.340;2022-08-07T01:26:00;17.30;55.30
23301;DHT22;11819;51.394;12.340;2022-08-07T01:28:27;17.30;55.30
23301;DHT22;11819;51.394;12.340;2022-08-07T01:33:22;17.30;55.10
23301;DHT22;11819;51.394;12.340;2022-08-07T01:35:50;17.20;55.40
23301;DHT22;11819;51.394;12.340;2022-08-07T01:38:16;17.20;55.50
23301;DHT22;11819;51.394;12.340;2022-08-07T01:40:44;17.10;55.60
23301;DHT22;11819;51.394;12.340;2022-08-07T01:43:12;17.10;55.70
23301;DHT22;11819;51.394;12.340;2022-08-07T01:45:38;17.00;55.80
23301;DHT22;11819;51.394;12.340;2022-08-07T01:48:05;17.00;55.90
23301;DHT22;11819;51.394;12.340;2022-08-07T01:50:31;16.90;56.00
23301;DHT22;11819;51.394;12.340;2022-08-07T01:52:59;16.90;56.20
23301;DHT22;11819;51.394;12.340;2022-08-07T01:55:30;16.90;56.30
23301;DHT22;11819;51.394;12.340;2022-08-07T01:57:59;16.80;56.20
23301;DHT22;11819;51.394;12.340;2022-08-07T02:00:28;16.90;56.30
23301;DHT22;11819;51.394;12.340;2022-08-07T02:02:58;16.90;56.20
23301;DHT22;11819;51.394;12.340;2022-08-07T02:05:44;16.90;56.20
23301;DHT22;11819;51.394;12.340;2022-08-07T02:08:16;16.90;56.20
23301;DHT22;11819;51.394;12.340;2022-08-07T02:10:45;16.90;56.20
23301;DHT22;11819;51.394;12.340;2022-08-07T02:13:13;16.90;56.20
23301;DHT22;11819;51.394;12.340;2022-08-07T02:15:49;16.80;56.20
23301;DHT22;11819;51.394;12.340;2022-08-07T02:18:18;16.80;56.20
23301;DHT22;11819;51.394;12.340;2022-08-07T02:20:45;16.80;56.20
23301;DHT22;11819;51.394;12.340;2022-08-07T02:23:13;16.80;56.30
23301;DHT22;11819;51.394;12.340;2022-08-07T02:25:41;16.70;56.40
23301;DHT22;11819;51.394;12.340;2022-08-07T02:28:09;16.60;56.50
23301;DHT22;11819;51.394;12.340;2022-08-07T02:30:37;16.60;56.70
23301;DHT22;11819;51.394;12.340;2022-08-07T02:33:04;16.50;56.80
23301;DHT22;11819;51.394;12.340;2022-08-07T02:35:32;16.50;56.90
23301;DHT22;11819;51.394;12.340;2022-08-07T02:38:00;16.40;57.00
23301;DHT22;11819;51.394;12.340;2022-08-07T02:40:27;16.40;57.10
23301;DHT22;11819;51.394;12.340;2022-08-07T02:42:56;16.40;57.20
23301;DHT22;11819;51.394;12.340;2022-08-07T02:45:26;16.40;57.30
23301;DHT22;11819;51.394;12.340;2022-08-07T02:47:53;16.30;57.40
23301;DHT22;11819;51.394;12.340;2022-08-07T02:50:19;16.30;57.50
23301;DHT22;11819;51.394;12.340;2022-08-07T02:52:53;16.40;57.70
23301;DHT22;11819;51.394;12.340;2022-08-07T02:55:29;16.40;57.70
23301;DHT22;11819;51.394;12.340;2022-08-07T02:58:01;16.40;57.80
23301;DHT22;11819;51.394;12.340;2022-08-07T03:00:28;16.30;57.90
23301;DHT22;11819;51.394;12.340;2022-08-07T03:02:55;16.30;58.00
23301;DHT22;11819;51.394;12.340;2022-08-07T03:05:23;16.30;58.10
23301;DHT22;11819;51.394;12.340;2022-08-07T03:07:49;16.20;58.10
23301;DHT22;11819;51.394;12.340;2022-08-07T03:10:16;16.20;58.20
23301;DHT22;11819;51.394;12.340;2022-08-07T03:12:44;16.20;58.40
23301;DHT22;11819;51.394;12.340;2022-08-07T03:15:12;16.10;58.40
23301;DHT22;11819;51.394;12.340;2022-08-07T03:17:39;16.10;58.60
23301;DHT22;11819;51.394;12.340;2022-08-07T03:20:08;16.00;58.70
23301;DHT22;11819;51.394;12.340;2022-08-07T03:22:35;16.00;58.80
23301;DHT22;11819;51.394;12.340;2022-08-07T03:25:02;15.90;59.50
23301;DHT22;11819;51.394;12.340;2022-08-07T03:27:36;15.90;59.00
23301;DHT22;11819;51.394;12.340;2022-08-07T03:30:03;15.80;59.10
23301;DHT22;11819;51.394;12.340;2022-08-07T03:32:39;15.80;59.20
23301;DHT22;11819;51.394;12.340;2022-08-07T03:35:11;15.70;59.30
23301;DHT22;11819;51.394;12.340;2022-08-07T03:37:39;15.70;59.40
23301;DHT22;11819;51.394;12.340;2022-08-07T03:40:06;15.70;59.50
23301;DHT22;11819;51.394;12.340;2022-08-07T03:42:33;15.60;59.50
23301;DHT22;11819;51.394;12.340;2022-08-07T03:45:01;15.60;59.60
23301;DHT22;11819;51.394;12.340;2022-08-07T03:47:29;15.60;59.70
23301;DHT22;11819;51.394;12.340;2022-08-07T03:49:56;15.50;59.70
23301;DHT22;11819;51.394;12.340;2022-08-07T03:52:26;15.50;59.80
23301;DHT22;11819;51.394;12.340;2022-08-07T03:54:56;15.50;59.90
23301;DHT22;11819;51.394;12.340;2022-08-07T03:57:24;15.40;59.90
23301;DHT22;11819;51.394;12.340;2022-08-07T03:59:50;15.40;60.00
23301;DHT22;11819;51.394;12.340;2022-08-07T04:02:16;15.40;60.10
23301;DHT22;11819;51.394;12.340;2022-08-07T04:04:42;15.40;60.20
23301;DHT22;11819;51.394;12.340;2022-08-07T04:07:08;15.40;60.40
23301;DHT22;11819;51.394;12.340;2022-08-07T04:09:35;15.30;60.50
23301;DHT22;11819;51.394;12.340;2022-08-07T04:12:02;15.30;60.60
23301;DHT22;11819;51.394;12.340;2022-08-07T04:14:29;15.40;60.70
23301;DHT22;11819;51.394;12.340;2022-08-07T04:16:55;15.40;60.80
23301;DHT22;11819;51.394;12.340;2022-08-07T04:19:21;15.40;60.80
23301;DHT22;11819;51.394;12.340;2022-08-07T04:21:51;15.40;60.90
23301;DHT22;11819;51.394;12.340;2022-08-07T04:24:18;15.40;60.90
23301;DHT22;11819;51.394;12.340;2022-08-07T04:26:44;15.50;61.00
23301;DHT22;11819;51.394;12.340;2022-08-07T04:29:10;15.50;61.00
23301;DHT22;11819;51.394;12.340;2022-08-07T04:31:40;15.50;61.00
23301;DHT22;11819;51.394;12.340;2022-08-07T04:34:07;15.50;61.00
23301;DHT22;11819;51.394;12.340;2022-08-07T04:36:34;15.60;61.10
23301;DHT22;11819;51.394;12.340;2022-08-07T04:39:01;15.60;61.10
23301;DHT22;11819;51.394;12.340;2022-08-07T04:41:27;15.60;61.10
23301;DHT22;11819;51.394;12.340;2022-08-07T04:43:54;15.60;61.00
23301;DHT22;11819;51.394;12.340;2022-08-07T04:49:41;15.70;61.00
23301;DHT22;11819;51.394;12.340;2022-08-07T04:55:11;15.80;60.90
23301;DHT22;11819;51.394;12.340;2022-08-07T04:57:58;15.80;60.90
23301;DHT22;11819;51.394;12.340;2022-08-07T05:03:21;15.90;60.80
23301;DHT22;11819;51.394;12.340;2022-08-07T05:05:57;16.00;60.60
23301;DHT22;11819;51.394;12.340;2022-08-07T05:08:41;16.00;60.60
23301;DHT22;11819;51.394;12.340;2022-08-07T05:11:14;16.00;60.50
23301;DHT22;11819;51.394;12.340;2022-08-07T05:13:51;16.10;60.50
23301;DHT22;11819;51.394;12.340;2022-08-07T05:16:20;16.10;60.40
23301;DHT22;11819;51.394;12.340;2022-08-07T05:18:55;16.20;60.50
23301;DHT22;11819;51.394;12.340;2022-08-07T05:21:26;16.20;60.40
23301;DHT22;11819;51.394;12.340;2022-08-07T05:24:02;16.30;60.30
23301;DHT22;11819;51.394;12.340;2022-08-07T05:26:32;16.30;60.20
23301;DHT22;11819;51.394;12.340;2022-08-07T05:29:06;16.40;60.20
23301;DHT22;11819;51.394;12.340;2022-08-07T05:31:38;16.40;59.90
23301;DHT22;11819;51.394;12.340;2022-08-07T05:34:10;16.50;59.80
23301;DHT22;11819;51.394;12.340;2022-08-07T05:36:39;16.60;59.70
23301;DHT22;11819;51.394;12.340;2022-08-07T05:39:14;16.60;59.70
23301;DHT22;11819;51.394;12.340;2022-08-07T05:41:41;16.70;59.70
23301;DHT22;11819;51.394;12.340;2022-08-07T05:44:09;16.70;59.60
23301;DHT22;11819;51.394;12.340;2022-08-07T05:46:36;16.80;59.40
23301;DHT22;11819;51.394;12.340;2022-08-07T05:49:08;16.90;59.20
23301;DHT22;11819;51.394;12.340;2022-08-07T05:51:35;17.00;59.00
23301;DHT22;11819;51.394;12.340;2022-08-07T05:54:01;17.00;58.80
23301;DHT22;11819;51.394;12.340;2022-08-07T05:56:28;17.10;58.80
23301;DHT22;11819;51.394;12.340;2022-08-07T05:58:54;17.10;58.70
23301;DHT22;11819;51.394;12.340;2022-08-07T06:01:25;17.20;58.60
23301;DHT22;11819;51.394;12.340;2022-08-07T06:03:54;17.30;58.40
23301;DHT22;11819;51.394;12.340;2022-08-07T06:06:22;17.30;58.30
23301;DHT22;11819;51.394;12.340;2022-08-07T06:08:52;17.40;58.20
23301;DHT22;11819;51.394;12.340;2022-08-07T06:11:18;17.40;57.90
23301;DHT22;11819;51.394;12.340;2022-08-07T06:13:44;17.50;58.20
23301;DHT22;11819;51.394;12.340;2022-08-07T06:16:12;17.60;57.50
23301;DHT22;11819;51.394;12.340;2022-08-07T06:18:41;17.60;57.30
23301;DHT22;11819;51.394;12.340;2022-08-07T06:21:06;17.70;57.10
23301;DHT22;11819;51.394;12.340;2022-08-07T06:23:35;17.70;56.90
23301;DHT22;11819;51.394;12.340;2022-08-07T06:26:01;17.80;56.80
23301;DHT22;11819;51.394;12.340;2022-08-07T06:28:27;17.80;56.60
23301;DHT22;11819;51.394;12.340;2022-08-07T06:30:53;17.90;56.40
23301;DHT22;11819;51.394;12.340;2022-08-07T06:33:21;18.00;56.20
23301;DHT22;11819;51.394;12.340;2022-08-07T06:35:49;18.00;56.00
23301;DHT22;11819;51.394;12.340;2022-08-07T06:38:15;18.10;55.80
23301;DHT22;11819;51.394;12.340;2022-08-07T06:40:50;18.10;55.70
23301;DHT22;11819;51.394;12.340;2022-08-07T06:43:20;18.20;55.60
23301;DHT22;11819;51.394;12.340;2022-08-07T06:45:54;18.20;55.50
23301;DHT22;11819;51.394;12.340;2022-08-07T06:48:20;18.30;55.40
23301;DHT22;11819;51.394;12.340;2022-08-07T06:50:48;18.30;55.20
23301;DHT22;11819;51.394;12.340;2022-08-07T06:53:20;18.40;55.00
23301;DHT22;11819;51.394;12.340;2022-08-07T06:55:48;18.40;55.00
23301;DHT22;11819;51.394;12.340;2022-08-07T06:58:15;18.40;54.90
23301;DHT22;11819;51.394;12.340;2022-08-07T07:00:51;18.50;54.90
23301;DHT22;11819;51.394;12.340;2022-08-07T07:03:17;18.50;54.80
23301;DHT22;11819;51.394;12.340;2022-08-07T07:05:44;18.60;54.70
23301;DHT22;11819;51.394;12.340;2022-08-07T07:08:10;18.60;55.30
23301;DHT22;11819;51.394;12.340;2022-08-07T07:10:37;18.70;54.50
23301;DHT22;11819;51.394;12.340;2022-08-07T07:13:10;18.70;54.50
23301;DHT22;11819;51.394;12.340;2022-08-07T07:15:41;18.80;54.50
23301;DHT22;11819;51.394;12.340;2022-08-07T07:18:24;18.80;54.40
23301;DHT22;11819;51.394;12.340;2022-08-07T07:20:56;18.90;54.40
23301;DHT22;11819;51.394;12.340;2022-08-07T07:23:24;18.90;54.40
23301;DHT22;11819;51.394;12.340;2022-08-07T07:25:53;19.00;54.20
23301;DHT22;11819;51.394;12.340;2022-08-07T07:28:24;19.10;54.10
23301;DHT22;11819;51.394;12.340;2022-08-07T07:31:16;19.10;54.00
23301;DHT22;11819;51.394;12.340;2022-08-07T07:33:43;19.10;53.80
23301;DHT22;11819;51.394;12.340;2022-08-07T07:36:10;19.20;53.80
23301;DHT22;11819;51.394;12.340;2022-08-07T07:38:36;19.20;53.70
23301;DHT22;11819;51.394;12.340;2022-08-07T07:41:05;19.20;54.20
23301;DHT22;11819;51.394;12.340;2022-08-07T07:43:33;19.20;53.50
23301;DHT22;11819;51.394;12.340;2022-08-07T07:46:01;19.30;53.50
23301;DHT22;11819;51.394;12.340;2022-08-07T07:48:28;19.40;53.40
23301;DHT22;11819;51.394;12.340;2022-08-07T07:50:54;19.40;53.30
23301;DHT22;11819;51.394;12.340;2022-08-07T07:53:21;19.50;53.20
23301;DHT22;11819;51.394;12.340;2022-08-07T07:55:48;19.60;53.10
23301;DHT22;11819;51.394;12.340;2022-08-07T07:58:14;19.60;52.90
23301;DHT22;11819;51.394;12.340;2022-08-07T08:00:42;19.60;52.70
23301;DHT22;11819;51.394;12.340;2022-08-07T08:03:11;19.70;52.60
23301;DHT22;11819;51.394;12.340;2022-08-07T08:05:39;19.70;52.40
23301;DHT22;11819;51.394;12.340;2022-08-07T08:08:08;19.80;52.30
23301;DHT22;11819;51.394;12.340;2022-08-07T08:10:34;19.80;52.20
23301;DHT22;11819;51.394;12.340;2022-08-07T08:13:00;19.80;52.10
23301;DHT22;11819;51.394;12.340;2022-08-07T08:15:29;19.80;52.20
23301;DHT22;11819;51.394;12.340;2022-08-07T08:17:56;19.90;52.00
23301;DHT22;11819;51.394;12.340;2022-08-07T08:20:24;20.00;52.10
23301;DHT22;11819;51.394;12.340;2022-08-07T08:22:51;20.00;51.90
23301;DHT22;11819;51.394;12.340;2022-08-07T08:25:38;20.00;51.60
23301;DHT22;11819;51.394;12.340;2022-08-07T08:28:26;20.10;51.50
23301;DHT22;11819;51.394;12.340;2022-08-07T08:30:56;20.20;51.30
23301;DHT22;11819;51.394;12.340;2022-08-07T08:33:24;20.20;51.10
23301;DHT22;11819;51.394;12.340;2022-08-07T08:35:53;20.30;50.90
23301;DHT22;11819;51.394;12.340;2022-08-07T08:38:22;20.30;50.60
23301;DHT22;11819;51.394;12.340;2022-08-07T08:41:00;20.40;50.80
23301;DHT22;11819;51.394;12.340;2022-08-07T08:43:30;20.40;49.80
23301;DHT22;11819;51.394;12.340;2022-08-07T08:46:07;20.50;49.50
23301;DHT22;11819;51.394;12.340;2022-08-07T08:51:35;20.50;49.10
23301;DHT22;11819;51.394;12.340;2022-08-07T08:54:14;20.60;48.90
23301;DHT22;11819;51.394;12.340;2022-08-07T08:56:47;20.60;48.80
23301;DHT22;11819;51.394;12.340;2022-08-07T08:59:26;20.70;48.80
23301;DHT22;11819;51.394;12.340;2022-08-07T09:05:16;20.80;48.70
23301;DHT22;11819;51.394;12.340;2022-08-07T09:07:48;20.80;48.40
23301;DHT22;11819;51.394;12.340;2022-08-07T09:10:55;20.80;48.40
23301;DHT22;11819;51.394;12.340;2022-08-07T09:16:07;20.80;48.10
23301;DHT22;11819;51.394;12.340;2022-08-07T09:19:01;20.80;48.00
23301;DHT22;11819;51.394;12.340;2022-08-07T09:37:48;21.10;47.40
23301;DHT22;11819;51.394;12.340;2022-08-07T09:43:40;21.30;47.00
23301;DHT22;11819;51.394;12.340;2022-08-07T09:46:50;21.30;46.80
23301;DHT22;11819;51.394;12.340;2022-08-07T09:49:57;21.40;46.50
23301;DHT22;11819;51.394;12.340;2022-08-07T09:52:38;21.40;46.40
23301;DHT22;11819;51.394;12.340;2022-08-07T09:55:20;21.50;46.20
23301;DHT22;11819;51.394;12.340;2022-08-07T10:00:30;21.50;45.80
23301;DHT22;11819;51.394;12.340;2022-08-07T10:03:18;21.60;45.70
23301;DHT22;11819;51.394;12.340;2022-08-07T10:16:54;21.90;45.00
23301;DHT22;11819;51.394;12.340;2022-08-07T10:19:49;21.90;44.80
23301;DHT22;11819;51.394;12.340;2022-08-07T10:25:34;22.10;44.40
23301;DHT22;11819;51.394;12.340;2022-08-07T10:31:05;22.20;44.10
23301;DHT22;11819;51.394;12.340;2022-08-07T10:33:54;22.30;44.00
23301;DHT22;11819;51.394;12.340;2022-08-07T10:36:55;22.40;44.00
23301;DHT22;11819;51.394;12.340;2022-08-07T10:47:56;22.60;43.40
23301;DHT22;11819;51.394;12.340;2022-08-07T10:53:33;22.70;43.00
23301;DHT22;11819;51.394;12.340;2022-08-07T10:58:56;22.80;42.40
23301;DHT22;11819;51.394;12.340;2022-08-07T11:01:44;22.80;42.40
23301;DHT22;11819;51.394;12.340;2022-08-07T11:04:19;22.80;42.40
23301;DHT22;11819;51.394;12.340;2022-08-07T11:07:09;22.90;42.30
23301;DHT22;11819;51.394;12.340;2022-08-07T11:09:46;22.90;42.20
23301;DHT22;11819;51.394;12.340;2022-08-07T11:14:53;23.00;42.10
23301;DHT22;11819;51.394;12.340;2022-08-07T11:17:40;23.00;42.10
23301;DHT22;11819;51.394;12.340;2022-08-07T11:25:33;23.10;41.80
23301;DHT22;11819;51.394;12.340;2022-08-07T11:28:14;23.20;41.60
23301;DHT22;11819;51.394;12.340;2022-08-07T11:33:18;23.40;41.30
23301;DHT22;11819;51.394;12.340;2022-08-07T11:36:05;23.40;41.10
23301;DHT22;11819;51.394;12.340;2022-08-07T11:38:42;23.50;41.20
23301;DHT22;11819;51.394;12.340;2022-08-07T11:41:15;23.60;41.20
23301;DHT22;11819;51.394;12.340;2022-08-07T11:44:00;23.70;41.00
23301;DHT22;11819;51.394;12.340;2022-08-07T11:49:24;23.90;40.60
23301;DHT22;11819;51.394;12.340;2022-08-07T11:55:07;24.10;40.00
23301;DHT22;11819;51.394;12.340;2022-08-07T11:57:54;24.20;40.60
23301;DHT22;11819;51.394;12.340;2022-08-07T12:00:37;24.40;40.20
23301;DHT22;11819;51.394;12.340;2022-08-07T12:06:14;24.70;40.00
23301;DHT22;11819;51.394;12.340;2022-08-07T12:08:52;24.90;39.30
23301;DHT22;11819;51.394;12.340;2022-08-07T12:11:26;24.90;38.80
23301;DHT22;11819;51.394;12.340;2022-08-07T12:14:12;25.00;38.90
23301;DHT22;11819;51.394;12.340;2022-08-07T12:16:51;25.10;38.70
23301;DHT22;11819;51.394;12.340;2022-08-07T12:22:27;25.30;38.40
23301;DHT22;11819;51.394;12.340;2022-08-07T12:25:07;25.50;38.20
23301;DHT22;11819;51.394;12.340;2022-08-07T12:28:00;25.60;37.90
23301;DHT22;11819;51.394;12.340;2022-08-07T12:30:32;25.70;37.60
23301;DHT22;11819;51.394;12.340;2022-08-07T12:33:06;25.80;37.30
23301;DHT22;11819;51.394;12.340;2022-08-07T12:35:35;25.90;37.10
23301;DHT22;11819;51.394;12.340;2022-08-07T12:38:01;26.20;37.80
23301;DHT22;11819;51.394;12.340;2022-08-07T12:40:30;26.40;36.80
23301;DHT22;11819;51.394;12.340;2022-08-07T12:43:00;26.70;36.30
23301;DHT22;11819;51.394;12.340;2022-08-07T12:45:40;26.90;36.00
23301;DHT22;11819;51.394;12.340;2022-08-07T12:48:22;27.10;35.50
23301;DHT22;11819;51.394;12.340;2022-08-07T12:51:00;27.20;35.20
23301;DHT22;11819;51.394;12.340;2022-08-07T12:53:34;27.40;34.80
23301;DHT22;11819;51.394;12.340;2022-08-07T12:56:53;27.60;34.40
23301;DHT22;11819;51.394;12.340;2022-08-07T12:58:53;27.80;34.40
23301;DHT22;11819;51.394;12.340;2022-08-07T13:01:41;28.00;34.20
23301;DHT22;11819;51.394;12.340;2022-08-07T13:07:06;28.30;33.20
23301;DHT22;11819;51.394;12.340;2022-08-07T13:15:15;28.90;32.50
23301;DHT22;11819;51.394;12.340;2022-08-07T13:18:23;29.10;32.10
23301;DHT22;11819;51.394;12.340;2022-08-07T13:20:43;29.20;32.00
23301;DHT22;11819;51.394;12.340;2022-08-07T13:23:23;29.30;32.00
23301;DHT22;11819;51.394;12.340;2022-08-07T13:25:58;29.60;32.20
23301;DHT22;11819;51.394;12.340;2022-08-07T13:28:34;29.80;32.00
23301;DHT22;11819;51.394;12.340;2022-08-07T13:31:11;30.10;31.80
23301;DHT22;11819;51.394;12.340;2022-08-07T13:33:57;30.40;31.40
23301;DHT22;11819;51.394;12.340;2022-08-07T13:36:38;30.50;31.00
23301;DHT22;11819;51.394;12.340;2022-08-07T13:39:17;30.60;30.60
23301;DHT22;11819;51.394;12.340;2022-08-07T13:41:50;30.70;30.60
23301;DHT22;11819;51.394;12.340;2022-08-07T13:44:23;30.90;30.40
23301;DHT22;11819;51.394;12.340;2022-08-07T13:46:52;31.10;30.30
23301;DHT22;11819;51.394;12.340;2022-08-07T13:49:21;31.20;29.90
23301;DHT22;11819;51.394;12.340;2022-08-07T13:51:49;31.30;29.80
23301;DHT22;11819;51.394;12.340;2022-08-07T13:54:17;31.50;29.80
23301;DHT22;11819;51.394;12.340;2022-08-07T13:56:44;31.70;29.70
23301;DHT22;11819;51.394;12.340;2022-08-07T13:59:20;31.90;29.40
23301;DHT22;11819;51.394;12.340;2022-08-07T14:01:58;32.00;29.20
23301;DHT22;11819;51.394;12.340;2022-08-07T14:04:55;32.20;29.10
23301;DHT22;11819;51.394;12.340;2022-08-07T14:07:21;32.30;28.80
23301;DHT22;11819;51.394;12.340;2022-08-07T14:09:52;32.40;28.60
23301;DHT22;11819;51.394;12.340;2022-08-07T14:12:27;32.40;28.70
23301;DHT22;11819;51.394;12.340;2022-08-07T14:15:00;32.50;28.40
23301;DHT22;11819;51.394;12.340;2022-08-07T14:17:29;32.60;28.20
23301;DHT22;11819;51.394;12.340;2022-08-07T14:20:11;32.50;28.00
23301;DHT22;11819;51.394;12.340;2022-08-07T14:22:42;32.70;28.20
23301;DHT22;11819;51.394;12.340;2022-08-07T14:25:11;32.70;28.00
23301;DHT22;11819;51.394;12.340;2022-08-07T14:27:42;32.80;27.90
23301;DHT22;11819;51.394;12.340;2022-08-07T14:30:10;32.90;27.80
23301;DHT22;11819;51.394;12.340;2022-08-07T14:32:46;32.90;27.60
23301;DHT22;11819;51.394;12.340;2022-08-07T14:35:19;32.90;27.80
23301;DHT22;11819;51.394;12.340;2022-08-07T14:37:48;33.00;27.70
23301;DHT22;11819;51.394;12.340;2022-08-07T14:40:15;33.00;27.70
23301;DHT22;11819;51.394;12.340;2022-08-07T14:42:43;33.00;27.70
23301;DHT22;11819;51.394;12.340;2022-08-07T14:45:10;33.10;27.70
23301;DHT22;11819;51.394;12.340;2022-08-07T14:47:38;33.20;27.60
23301;DHT22;11819;51.394;12.340;2022-08-07T14:50:06;33.20;27.60
23301;DHT22;11819;51.394;12.340;2022-08-07T14:52:34;33.30;27.60
23301;DHT22;11819;51.394;12.340;2022-08-07T14:55:01;33.40;27.50
23301;DHT22;11819;51.394;12.340;2022-08-07T14:57:30;33.50;27.50
23301;DHT22;11819;51.394;12.340;2022-08-07T14:59:57;33.60;27.40
23301;DHT22;11819;51.394;12.340;2022-08-07T15:02:25;33.60;27.40
23301;DHT22;11819;51.394;12.340;2022-08-07T15:04:51;33.70;27.30
23301;DHT22;11819;51.394;12.340;2022-08-07T15:07:21;33.70;27.20
23301;DHT22;11819;51.394;12.340;2022-08-07T15:09:50;33.70;27.00
23301;DHT22;11819;51.394;12.340;2022-08-07T15:12:22;33.60;27.10
23301;DHT22;11819;51.394;12.340;2022-08-07T15:14:51;33.40;27.20
23301;DHT22;11819;51.394;12.340;2022-08-07T15:17:23;33.40;27.30
23301;DHT22;11819;51.394;12.340;2022-08-07T15:19:56;33.50;27.30
23301;DHT22;11819;51.394;12.340;2022-08-07T15:22:28;33.60;27.10
23301;DHT22;11819;51.394;12.340;2022-08-07T15:24:54;33.60;27.10
23301;DHT22;11819;51.394;12.340;2022-08-07T15:27:23;33.70;27.00
23301;DHT22;11819;51.394;12.340;2022-08-07T15:29:54;33.80;26.90
23301;DHT22;11819;51.394;12.340;2022-08-07T15:32:23;33.80;26.90
23301;DHT22;11819;51.394;12.340;2022-08-07T15:34:51;33.80;26.80
23301;DHT22;11819;51.394;12.340;2022-08-07T15:37:21;33.80;26.70
23301;DHT22;11819;51.394;12.340;2022-08-07T15:39:52;33.80;26.70
23301;DHT22;11819;51.394;12.340;2022-08-07T15:45:03;33.70;26.60
23301;DHT22;11819;51.394;12.340;2022-08-07T15:47:34;33.50;26.60
23301;DHT22;11819;51.394;12.340;2022-08-07T15:50:02;33.40;26.70
23301;DHT22;11819;51.394;12.340;2022-08-07T15:52:30;33.40;26.90
23301;DHT22;11819;51.394;12.340;2022-08-07T15:55:03;33.20;26.80
23301;DHT22;11819;51.394;12.340;2022-08-07T15:57:31;32.90;26.90
23301;DHT22;11819;51.394;12.340;2022-08-07T15:59:58;32.50;27.00
23301;DHT22;11819;51.394;12.340;2022-08-07T16:02:31;32.00;27.10
23301;DHT22;11819;51.394;12.340;2022-08-07T16:05:02;31.70;27.40
23301;DHT22;11819;51.394;12.340;2022-08-07T16:07:34;31.40;27.60
23301;DHT22;11819;51.394;12.340;2022-08-07T16:10:17;31.10;27.80
23301;DHT22;11819;51.394;12.340;2022-08-07T16:13:07;30.80;28.00
23301;DHT22;11819;51.394;12.340;2022-08-07T16:16:02;30.60;28.10
23301;DHT22;11819;51.394;12.340;2022-08-07T16:24:12;30.00;28.70
23301;DHT22;11819;51.394;12.340;2022-08-07T16:32:03;29.50;29.20
23301;DHT22;11819;51.394;12.340;2022-08-07T16:38:21;29.30;29.50
23301;DHT22;11819;51.394;12.340;2022-08-07T16:40:36;29.20;29.50
23301;DHT22;11819;51.394;12.340;2022-08-07T16:51:49;28.80;29.70
23301;DHT22;11819;51.394;12.340;2022-08-07T17:04:52;28.30;30.20
23301;DHT22;11819;51.394;12.340;2022-08-07T17:08:01;28.30;30.50
23301;DHT22;11819;51.394;12.340;2022-08-07T17:10:44;28.20;30.60
23301;DHT22;11819;51.394;12.340;2022-08-07T17:16:20;27.90;30.90
23301;DHT22;11819;51.394;12.340;2022-08-07T17:19:36;27.80;31.00
23301;DHT22;11819;51.394;12.340;2022-08-07T17:22:07;27.70;31.20
23301;DHT22;11819;51.394;12.340;2022-08-07T17:24:52;27.70;31.50
23301;DHT22;11819;51.394;12.340;2022-08-07T17:30:13;27.50;31.60
23301;DHT22;11819;51.394;12.340;2022-08-07T17:35:28;27.50;31.90
23301;DHT22;11819;51.394;12.340;2022-08-07T17:40:55;27.40;32.10
23301;DHT22;11819;51.394;12.340;2022-08-07T17:43:31;27.40;32.20
23301;DHT22;11819;51.394;12.340;2022-08-07T17:46:18;27.30;32.20
23301;DHT22;11819;51.394;12.340;2022-08-07T17:48:50;27.30;32.30
23301;DHT22;11819;51.394;12.340;2022-08-07T17:51:30;27.10;32.20
23301;DHT22;11819;51.394;12.340;2022-08-07T17:57:05;27.00;32.20
23301;DHT22;11819;51.394;12.340;2022-08-07T18:00:00;26.90;32.30
23301;DHT22;11819;51.394;12.340;2022-08-07T18:02:32;26.80;33.10
23301;DHT22;11819;51.394;12.340;2022-08-07T18:08:26;26.70;32.60
23301;DHT22;11819;51.394;12.340;2022-08-07T18:11:04;26.60;32.80
23301;DHT22;11819;51.394;12.340;2022-08-07T18:13:59;26.60;32.90
23301;DHT22;11819;51.394;12.340;2022-08-07T18:19:32;26.50;33.10
23301;DHT22;11819;51.394;12.340;2022-08-07T18:22:37;26.40;33.20
23301;DHT22;11819;51.394;12.340;2022-08-07T18:25:14;26.30;33.30
23301;DHT22;11819;51.394;12.340;2022-08-07T18:30:14;26.20;33.60